sensor_id;sensor_type;location;lat;lon;timestamp;pressure;altitude;pressure_sealevel;temperature;humidity
10988;BME280;5547;42.672;23.230;2023-04-01T00:00:45;92491.13;;;11.53;48.84
10988;BME280;5547;42.672;23.230;2023-04-01T00:03:45;92455.22;;;11.23;48.61
10988;BME280;5547;42.672;23.230;2023-04-01T00:06:46;92256.28;;;9.94;48.06
10988;BME280;5547;42.672;23.230;2023-04-01T00:09:47;92403.72;;;10.91;48.59
10988;BME280;5547;42.672;23.230;2023-04-01T00:12:48;92497.13;;;11.45;48.76
10988;BME280;5547;42.672;23.230;2023-04-01T00:15:48;92404.97;;;11.00;48.65
10988;BME280;5547;42.672;23.230;2023-04-01T00:18:50;92444.34;;;11.30;47.97
10988;BME280;5547;42.672;23.230;2023-04-01T00:21:51;92446.69;;;11.28;47.00
10988;BME280;5547;42.672;23.230;2023-04-01T00:24:53;92369.19;;;10.66;47.96
10988;BME280;5547;42.672;23.230;2023-04-01T00:27:53;92483.00;;;11.70;47.43
10988;BME280;5547;42.672;23.230;2023-04-01T00:30:54;92450.97;;;11.48;48.18
10988;BME280;5547;42.672;23.230;2023-04-01T00:33:55;92473.44;;;11.60;48.78
10988;BME280;5547;42.672;23.230;2023-04-01T00:36:56;92454.31;;;11.39;50.40
10988;BME280;5547;42.672;23.230;2023-04-01T00:39:56;92378.81;;;10.85;50.45
10988;BME280;5547;42.672;23.230;2023-04-01T00:42:57;92382.03;;;10.93;49.28
10988;BME280;5547;42.672;23.230;2023-04-01T00:45:58;92412.44;;;11.05;50.86
10988;BME280;5547;42.672;23.230;2023-04-01T00:48:59;92458.38;;;11.31;49.13
10988;BME280;5547;42.672;23.230;2023-04-01T00:52:03;92460.16;;;11.34;49.98
10988;BME280;5547;42.672;23.230;2023-04-01T00:55:05;92457.88;;;10.59;59.36
10988;BME280;5547;42.672;23.230;2023-04-01T00:58:09;92150.59;;;7.95;61.31
10988;BME280;5547;42.672;23.230;2023-04-01T01:01:12;92434.00;;;9.75;65.32
10988;BME280;5547;42.672;23.230;2023-04-01T01:04:24;92429.78;;;9.61;62.68
10988;BME280;5547;42.672;23.230;2023-04-01T01:10:38;92416.13;;;9.76;56.50
10988;BME280;5547;42.672;23.230;2023-04-01T01:13:53;92384.03;;;10.12;52.24
10988;BME280;5547;42.672;23.230;2023-04-01T01:17:06;92326.81;;;9.82;51.18
10988;BME280;5547;42.672;23.230;2023-04-01T01:27:10;92393.50;;;11.03;49.92
10988;BME280;5547;42.672;23.230;2023-04-01T01:33:50;92392.22;;;9.17;65.68
10988;BME280;5547;42.672;23.230;2023-04-01T01:36:57;92391.47;;;9.00;67.46
10988;BME280;5547;42.672;23.230;2023-04-01T01:40:05;92385.06;;;8.85;67.44
10988;BME280;5547;42.672;23.230;2023-04-01T01:43:10;92388.94;;;8.80;68.10
10988;BME280;5547;42.672;23.230;2023-04-01T01:46:16;92389.34;;;8.95;65.93
10988;BME280;5547;42.672;23.230;2023-04-01T01:49:18;92281.56;;;8.72;57.99
10988;BME280;5547;42.672;23.230;2023-04-01T01:52:19;92374.69;;;10.07;52.04
10988;BME280;5547;42.672;23.230;2023-04-01T01:55:29;92367.38;;;10.37;50.77
10988;BME280;5547;42.672;23.230;2023-04-01T01:58:40;92301.59;;;10.28;48.45
10988;BME280;5547;42.672;23.230;2023-04-01T02:01:46;92199.88;;;9.77;47.97
10988;BME280;5547;42.672;23.230;2023-04-01T02:04:49;92367.66;;;10.90;48.03
10988;BME280;5547;42.672;23.230;2023-04-01T02:08:00;92373.06;;;11.00;47.34
10988;BME280;5547;42.672;23.230;2023-04-01T02:11:05;92375.63;;;10.90;49.90
10988;BME280;5547;42.672;23.230;2023-04-01T02:14:13;92200.69;;;9.22;57.69
10988;BME280;5547;42.672;23.230;2023-04-01T02:17:18;92271.53;;;9.09;60.83
10988;BME280;5547;42.672;23.230;2023-04-01T02:20:21;92294.53;;;8.99;62.52
10988;BME280;5547;42.672;23.230;2023-04-01T02:23:23;92222.78;;;8.61;61.71
10988;BME280;5547;42.672;23.230;2023-04-01T02:26:24;92324.22;;;9.23;60.44
10988;BME280;5547;42.672;23.230;2023-04-01T02:29:25;92331.84;;;9.21;60.03
10988;BME280;5547;42.672;23.230;2023-04-01T02:32:27;92252.91;;;8.67;61.76
10988;BME280;5547;42.672;23.230;2023-04-01T02:35:29;92369.41;;;9.49;58.98
10988;BME280;5547;42.672;23.230;2023-04-01T02:38:30;92340.22;;;9.49;54.53
10988;BME280;5547;42.672;23.230;2023-04-01T02:41:31;92206.59;;;8.72;55.46
10988;BME280;5547;42.672;23.230;2023-04-01T02:44:31;92377.88;;;10.15;55.38
10988;BME280;5547;42.672;23.230;2023-04-01T02:47:32;92288.56;;;9.79;53.62
10988;BME280;5547;42.672;23.230;2023-04-01T02:50:32;92238.72;;;9.45;50.09
10988;BME280;5547;42.672;23.230;2023-04-01T02:53:33;92312.28;;;10.25;48.11
10988;BME280;5547;42.672;23.230;2023-04-01T02:56:33;92334.28;;;10.51;47.47
10988;BME280;5547;42.672;23.230;2023-04-01T02:59:34;92246.28;;;10.10;46.72
10988;BME280;5547;42.672;23.230;2023-04-01T03:02:34;92346.63;;;10.70;47.42
10988;BME280;5547;42.672;23.230;2023-04-01T03:05:36;92332.69;;;10.54;47.77
10988;BME280;5547;42.672;23.230;2023-04-01T03:08:37;92232.78;;;9.79;48.32
10988;BME280;5547;42.672;23.230;2023-04-01T03:11:37;92354.50;;;10.61;50.34
10988;BME280;5547;42.672;23.230;2023-04-01T03:14:38;92188.50;;;9.63;49.09
10988;BME280;5547;42.672;23.230;2023-04-01T03:17:39;92399.78;;;10.83;53.39
10988;BME280;5547;42.672;23.230;2023-04-01T03:20:39;92216.13;;;9.40;54.01
10988;BME280;5547;42.672;23.230;2023-04-01T03:23:40;92283.00;;;9.48;60.33
10988;BME280;5547;42.672;23.230;2023-04-01T03:26:40;92381.03;;;9.68;63.35
10988;BME280;5547;42.672;23.230;2023-04-01T03:29:41;92317.25;;;9.30;65.81
10988;BME280;5547;42.672;23.230;2023-04-01T03:32:41;92102.38;;;7.54;66.08
10988;BME280;5547;42.672;23.230;2023-04-01T03:35:41;92300.50;;;9.03;67.67
10988;BME280;5547;42.672;23.230;2023-04-01T03:38:43;92369.53;;;9.45;69.13
10988;BME280;5547;42.672;23.230;2023-04-01T03:41:44;92350.69;;;9.40;69.60
10988;BME280;5547;42.672;23.230;2023-04-01T03:44:45;92333.03;;;9.20;74.93
10988;BME280;5547;42.672;23.230;2023-04-01T03:47:45;92290.16;;;8.93;75.10
10988;BME280;5547;42.672;23.230;2023-04-01T03:50:46;92297.38;;;8.92;75.36
10988;BME280;5547;42.672;23.230;2023-04-01T03:53:48;92297.41;;;8.76;85.25
10988;BME280;5547;42.672;23.230;2023-04-01T03:56:49;92286.38;;;8.61;81.86
10988;BME280;5547;42.672;23.230;2023-04-01T03:59:50;92281.59;;;8.56;82.29
10988;BME280;5547;42.672;23.230;2023-04-01T04:02:50;92281.44;;;8.47;82.95
10988;BME280;5547;42.672;23.230;2023-04-01T04:05:50;92279.91;;;8.13;93.95
10988;BME280;5547;42.672;23.230;2023-04-01T04:08:51;92273.13;;;8.12;88.41
10988;BME280;5547;42.672;23.230;2023-04-01T04:11:51;92266.19;;;8.18;85.48
10988;BME280;5547;42.672;23.230;2023-04-01T04:14:52;92250.09;;;7.92;91.87
10988;BME280;5547;42.672;23.230;2023-04-01T04:17:52;92278.94;;;8.07;90.66
10988;BME280;5547;42.672;23.230;2023-04-01T04:20:52;92253.34;;;7.84;92.20
10988;BME280;5547;42.672;23.230;2023-04-01T04:23:53;92264.44;;;7.95;91.74
10988;BME280;5547;42.672;23.230;2023-04-01T04:26:53;92258.97;;;8.02;89.53
10988;BME280;5547;42.672;23.230;2023-04-01T04:29:54;92190.34;;;7.58;85.96
10988;BME280;5547;42.672;23.230;2023-04-01T04:32:54;92251.28;;;8.08;85.87
10988;BME280;5547;42.672;23.230;2023-04-01T04:35:56;92251.59;;;8.26;81.56
10988;BME280;5547;42.672;23.230;2023-04-01T04:38:57;92227.84;;;8.06;81.22
10988;BME280;5547;42.672;23.230;2023-04-01T04:41:58;92129.34;;;7.49;81.74
10988;BME280;5547;42.672;23.230;2023-04-01T04:44:58;92058.41;;;7.44;71.82
10988;BME280;5547;42.672;23.230;2023-04-01T04:47:59;92227.81;;;8.72;69.63
10988;BME280;5547;42.672;23.230;2023-04-01T04:51:00;92178.25;;;8.39;75.38
10988;BME280;5547;42.672;23.230;2023-04-01T04:54:00;92056.66;;;7.38;76.58
10988;BME280;5547;42.672;23.230;2023-04-01T04:57:01;92001.53;;;6.87;78.40
10988;BME280;5547;42.672;23.230;2023-04-01T05:00:02;92208.41;;;7.96;78.81
10988;BME280;5547;42.672;23.230;2023-04-01T05:03:03;92216.34;;;7.96;83.76
10988;BME280;5547;42.672;23.230;2023-04-01T05:06:04;92153.22;;;7.46;82.15
10988;BME280;5547;42.672;23.230;2023-04-01T05:09:05;92114.00;;;7.08;86.71
10988;BME280;5547;42.672;23.230;2023-04-01T05:12:06;92112.31;;;6.98;89.45
10988;BME280;5547;42.672;23.230;2023-04-01T05:15:07;92160.25;;;7.16;89.58
10988;BME280;5547;42.672;23.230;2023-04-01T05:18:08;92178.31;;;7.21;91.22
10988;BME280;5547;42.672;23.230;2023-04-01T05:21:10;92183.50;;;7.25;92.20
10988;BME280;5547;42.672;23.230;2023-04-01T05:24:11;91872.19;;;5.38;87.49
10988;BME280;5547;42.672;23.230;2023-04-01T05:27:11;92178.69;;;7.56;90.16
10988;BME280;5547;42.672;23.230;2023-04-01T05:30:11;92144.84;;;7.31;87.49
10988;BME280;5547;42.672;23.230;2023-04-01T05:33:12;92099.56;;;7.29;83.57
10988;BME280;5547;42.672;23.230;2023-04-01T05:36:14;92146.94;;;8.05;84.44
10988;BME280;5547;42.672;23.230;2023-04-01T05:39:15;92168.19;;;8.63;82.14
10988;BME280;5547;42.672;23.230;2023-04-01T05:42:15;92152.06;;;9.00;77.56
10988;BME280;5547;42.672;23.230;2023-04-01T05:45:16;92044.22;;;8.42;70.88
10988;BME280;5547;42.672;23.230;2023-04-01T05:48:17;92156.44;;;9.83;67.58
10988;BME280;5547;42.672;23.230;2023-04-01T05:51:17;92078.00;;;9.57;67.56
10988;BME280;5547;42.672;23.230;2023-04-01T05:54:18;92117.78;;;10.17;64.60
10988;BME280;5547;42.672;23.230;2023-04-01T05:57:19;92166.91;;;10.82;65.40
10988;BME280;5547;42.672;23.230;2023-04-01T06:00:21;92097.69;;;10.29;64.91
10988;BME280;5547;42.672;23.230;2023-04-01T06:03:21;92105.34;;;10.14;66.84
10988;BME280;5547;42.672;23.230;2023-04-01T06:06:27;92169.75;;;10.66;65.14
10988;BME280;5547;42.672;23.230;2023-04-01T06:09:29;92159.84;;;10.44;65.78
10988;BME280;5547;42.672;23.230;2023-04-01T06:12:53;92162.06;;;10.46;64.70
10988;BME280;5547;42.672;23.230;2023-04-01T06:16:27;92164.97;;;10.26;67.48
10988;BME280;5547;42.672;23.230;2023-04-01T06:19:43;92115.63;;;10.25;64.79
10988;BME280;5547;42.672;23.230;2023-04-01T06:22:51;92190.25;;;10.43;69.17
10988;BME280;5547;42.672;23.230;2023-04-01T06:50:07;92140.00;;;10.80;63.37
10988;BME280;5547;42.672;23.230;2023-04-01T06:53:17;92126.59;;;10.84;63.63
10988;BME280;5547;42.672;23.230;2023-04-01T06:56:21;92110.94;;;10.64;64.36
10988;BME280;5547;42.672;23.230;2023-04-01T06:59:28;92116.94;;;10.77;65.00
10988;BME280;5547;42.672;23.230;2023-04-01T07:02:53;92126.56;;;10.62;65.27
10988;BME280;5547;42.672;23.230;2023-04-01T07:06:02;92129.94;;;11.06;63.68
10988;BME280;5547;42.672;23.230;2023-04-01T07:09:09;92112.16;;;10.94;62.25
10988;BME280;5547;42.672;23.230;2023-04-01T07:12:15;92133.78;;;11.36;62.31
10988;BME280;5547;42.672;23.230;2023-04-01T07:15:23;92109.41;;;11.38;61.15
10988;BME280;5547;42.672;23.230;2023-04-01T07:18:34;92123.78;;;11.50;58.97
10988;BME280;5547;42.672;23.230;2023-04-01T07:24:44;92125.03;;;11.27;61.53
10988;BME280;5547;42.672;23.230;2023-04-01T07:27:46;92102.50;;;11.59;58.81
10988;BME280;5547;42.672;23.230;2023-04-01T07:31:23;92125.47;;;12.15;62.30
10988;BME280;5547;42.672;23.230;2023-04-01T07:34:35;92135.97;;;12.19;57.84
10988;BME280;5547;42.672;23.230;2023-04-01T07:44:54;92136.09;;;11.97;57.38
10988;BME280;5547;42.672;23.230;2023-04-01T07:48:26;92131.84;;;11.68;59.96
10988;BME280;5547;42.672;23.230;2023-04-01T07:54:55;92125.06;;;11.76;59.63
10988;BME280;5547;42.672;23.230;2023-04-01T08:01:45;92108.22;;;11.08;63.05
10988;BME280;5547;42.672;23.230;2023-04-01T08:15:12;92102.47;;;11.41;62.65
10988;BME280;5547;42.672;23.230;2023-04-01T08:18:22;92084.00;;;12.05;59.89
10988;BME280;5547;42.672;23.230;2023-04-01T08:21:32;92053.50;;;11.88;60.32
10988;BME280;5547;42.672;23.230;2023-04-01T08:24:42;92070.06;;;12.01;59.81
10988;BME280;5547;42.672;23.230;2023-04-01T08:27:51;92041.91;;;12.65;56.59
10988;BME280;5547;42.672;23.230;2023-04-01T08:31:03;92055.75;;;13.06;56.99
10988;BME280;5547;42.672;23.230;2023-04-01T08:34:08;92037.56;;;13.28;54.96
10988;BME280;5547;42.672;23.230;2023-04-01T08:37:25;92024.31;;;13.00;54.95
10988;BME280;5547;42.672;23.230;2023-04-01T09:00:10;92028.34;;;14.25;44.71
10988;BME280;5547;42.672;23.230;2023-04-01T09:03:36;92022.34;;;14.69;42.96
10988;BME280;5547;42.672;23.230;2023-04-01T09:06:52;92023.91;;;14.61;49.86
10988;BME280;5547;42.672;23.230;2023-04-01T09:17:01;91991.41;;;14.83;39.83
10988;BME280;5547;42.672;23.230;2023-04-01T09:27:37;92005.53;;;15.13;40.68
10988;BME280;5547;42.672;23.230;2023-04-01T09:30:38;91995.72;;;15.25;41.94
10988;BME280;5547;42.672;23.230;2023-04-01T09:34:24;91997.00;;;15.30;41.02
10988;BME280;5547;42.672;23.230;2023-04-01T09:40:56;91965.13;;;15.32;42.38
10988;BME280;5547;42.672;23.230;2023-04-01T09:44:18;91952.34;;;16.03;40.22
10988;BME280;5547;42.672;23.230;2023-04-01T09:47:42;91964.41;;;16.13;40.85
10988;BME280;5547;42.672;23.230;2023-04-01T10:17:14;91909.88;;;16.80;40.55
10988;BME280;5547;42.672;23.230;2023-04-01T10:30:51;91889.75;;;16.70;40.16
10988;BME280;5547;42.672;23.230;2023-04-01T10:37:56;91885.94;;;16.82;39.71
10988;BME280;5547;42.672;23.230;2023-04-01T10:41:46;91868.25;;;16.64;40.43
10988;BME280;5547;42.672;23.230;2023-04-01T10:52:04;91863.16;;;17.09;38.69
10988;BME280;5547;42.672;23.230;2023-04-01T11:28:19;91906.75;;;14.65;48.12
10988;BME280;5547;42.672;23.230;2023-04-01T11:38:50;91981.56;;;12.06;68.29
10988;BME280;5547;42.672;23.230;2023-04-01T11:42:13;92000.88;;;11.02;82.90
10988;BME280;5547;42.672;23.230;2023-04-01T11:45:39;92047.97;;;9.82;100.00
10988;BME280;5547;42.672;23.230;2023-04-01T11:56:09;92070.38;;;8.95;100.00
10988;BME280;5547;42.672;23.230;2023-04-01T12:00:10;92054.66;;;8.62;100.00
10988;BME280;5547;42.672;23.230;2023-04-01T12:06:48;92059.53;;;8.76;100.00
10988;BME280;5547;42.672;23.230;2023-04-01T12:13:43;92051.81;;;9.20;100.00
10988;BME280;5547;42.672;23.230;2023-04-01T12:17:27;92054.53;;;9.90;100.00
10988;BME280;5547;42.672;23.230;2023-04-01T12:20:57;92062.28;;;10.54;100.00
10988;BME280;5547;42.672;23.230;2023-04-01T12:24:32;92056.16;;;10.66;100.00
10988;BME280;5547;42.672;23.230;2023-04-01T12:27:40;92066.03;;;10.97;100.00
10988;BME280;5547;42.672;23.230;2023-04-01T12:37:29;92071.28;;;9.65;100.00
10988;BME280;5547;42.672;23.230;2023-04-01T12:40:44;92065.88;;;9.68;100.00
10988;BME280;5547;42.672;23.230;2023-04-01T12:47:21;92010.31;;;9.27;100.00
10988;BME280;5547;42.672;23.230;2023-04-01T12:54:21;92009.72;;;8.97;100.00
10988;BME280;5547;42.672;23.230;2023-04-01T13:20:54;91924.78;;;10.01;100.00
10988;BME280;5547;42.672;23.230;2023-04-01T13:27:27;91973.19;;;10.81;100.00
10988;BME280;5547;42.672;23.230;2023-04-01T13:34:06;91953.50;;;11.19;100.00
10988;BME280;5547;42.672;23.230;2023-04-01T13:40:33;91937.09;;;10.70;100.00
10988;BME280;5547;42.672;23.230;2023-04-01T13:43:45;91921.03;;;10.92;100.00
10988;BME280;5547;42.672;23.230;2023-04-01T13:50:37;91915.31;;;11.03;100.00
10988;BME280;5547;42.672;23.230;2023-04-01T13:53:47;91915.06;;;11.29;100.00
10988;BME280;5547;42.672;23.230;2023-04-01T14:46:27;91857.88;;;12.22;100.00
10988;BME280;5547;42.672;23.230;2023-04-01T14:49:52;91853.09;;;12.35;100.00
10988;BME280;5547;42.672;23.230;2023-04-01T14:52:59;91867.00;;;12.39;100.00
10988;BME280;5547;42.672;23.230;2023-04-01T14:56:11;91869.56;;;12.34;100.00
10988;BME280;5547;42.672;23.230;2023-04-01T15:27:10;91885.19;;;11.43;75.61
10988;BME280;5547;42.672;23.230;2023-04-01T15:30:21;91894.38;;;11.61;74.01
10988;BME280;5547;42.672;23.230;2023-04-01T15:33:32;91905.47;;;11.59;76.67
10988;BME280;5547;42.672;23.230;2023-04-01T15:43:14;91951.47;;;11.50;74.56
10988;BME280;5547;42.672;23.230;2023-04-01T15:46:44;92062.59;;;10.34;80.92
10988;BME280;5547;42.672;23.230;2023-04-01T15:49:55;92062.84;;;8.09;99.46
10988;BME280;5547;42.672;23.230;2023-04-01T16:03:24;92119.78;;;6.03;100.00
10988;BME280;5547;42.672;23.230;2023-04-01T16:10:16;92143.47;;;5.59;100.00
10988;BME280;5547;42.672;23.230;2023-04-01T16:27:01;92137.63;;;5.21;100.00
10988;BME280;5547;42.672;23.230;2023-04-01T16:37:05;92201.13;;;5.30;100.00
10988;BME280;5547;42.672;23.230;2023-04-01T16:43:16;92207.84;;;5.35;100.00
10988;BME280;5547;42.672;23.230;2023-04-01T16:46:34;92195.97;;;5.23;100.00
10988;BME280;5547;42.672;23.230;2023-04-01T16:50:05;92211.63;;;5.34;100.00
10988;BME280;5547;42.672;23.230;2023-04-01T16:53:17;92227.00;;;5.39;100.00
10988;BME280;5547;42.672;23.230;2023-04-01T16:56:32;92228.16;;;5.38;100.00
10988;BME280;5547;42.672;23.230;2023-04-01T16:59:46;92197.53;;;5.17;100.00
10988;BME280;5547;42.672;23.230;2023-04-01T17:03:19;92234.16;;;5.38;100.00
10988;BME280;5547;42.672;23.230;2023-04-01T17:13:10;92267.41;;;5.32;100.00
10988;BME280;5547;42.672;23.230;2023-04-01T17:19:39;92272.84;;;5.18;100.00
10988;BME280;5547;42.672;23.230;2023-04-01T17:23:01;92263.03;;;5.18;100.00
10988;BME280;5547;42.672;23.230;2023-04-01T17:29:31;92264.88;;;4.91;100.00
10988;BME280;5547;42.672;23.230;2023-04-01T17:32:50;92270.56;;;4.86;100.00
10988;BME280;5547;42.672;23.230;2023-04-01T17:36:03;92261.22;;;4.81;100.00
10988;BME280;5547;42.672;23.230;2023-04-01T17:40:00;92270.69;;;4.71;100.00
10988;BME280;5547;42.672;23.230;2023-04-01T17:53:09;92255.84;;;4.50;100.00
10988;BME280;5547;42.672;23.230;2023-04-01T18:00:12;92283.34;;;4.46;100.00
10988;BME280;5547;42.672;23.230;2023-04-01T18:07:06;92292.31;;;4.55;100.00
10988;BME280;5547;42.672;23.230;2023-04-01T18:10:16;92299.66;;;4.71;100.00
10988;BME280;5547;42.672;23.230;2023-04-01T18:22:57;92286.69;;;4.91;100.00
10988;BME280;5547;42.672;23.230;2023-04-01T18:26:23;92325.56;;;5.18;100.00
10988;BME280;5547;42.672;23.230;2023-04-01T18:29:55;92322.56;;;5.16;100.00
10988;BME280;5547;42.672;23.230;2023-04-01T18:39:42;92322.78;;;4.94;100.00
10988;BME280;5547;42.672;23.230;2023-04-01T18:42:50;92335.31;;;5.21;100.00
10988;BME280;5547;42.672;23.230;2023-04-01T18:46:09;92329.94;;;5.32;100.00
10988;BME280;5547;42.672;23.230;2023-04-01T18:49:29;92342.06;;;5.25;100.00
10988;BME280;5547;42.672;23.230;2023-04-01T18:52:39;92286.47;;;4.78;100.00
10988;BME280;5547;42.672;23.230;2023-04-01T18:55:43;92342.94;;;5.12;100.00
10988;BME280;5547;42.672;23.230;2023-04-01T18:58:52;92347.78;;;5.17;100.00
10988;BME280;5547;42.672;23.230;2023-04-01T19:05:23;92324.50;;;5.12;100.00
10988;BME280;5547;42.672;23.230;2023-04-01T19:08:38;92351.91;;;5.52;100.00
10988;BME280;5547;42.672;23.230;2023-04-01T19:11:47;92347.53;;;5.38;100.00
10988;BME280;5547;42.672;23.230;2023-04-01T19:21:33;92376.78;;;5.55;100.00
10988;BME280;5547;42.672;23.230;2023-04-01T19:31:51;92371.78;;;5.26;100.00
10988;BME280;5547;42.672;23.230;2023-04-01T19:38:30;92381.75;;;5.08;100.00
10988;BME280;5547;42.672;23.230;2023-04-01T19:49:14;92393.47;;;5.07;100.00
10988;BME280;5547;42.672;23.230;2023-04-01T19:55:39;92410.69;;;5.15;100.00
10988;BME280;5547;42.672;23.230;2023-04-01T19:59:11;92411.75;;;5.24;100.00
10988;BME280;5547;42.672;23.230;2023-04-01T20:02:33;92419.50;;;5.39;100.00
10988;BME280;5547;42.672;23.230;2023-04-01T20:12:25;92400.47;;;5.20;100.00
10988;BME280;5547;42.672;23.230;2023-04-01T20:15:44;92389.25;;;5.13;100.00
10988;BME280;5547;42.672;23.230;2023-04-01T20:18:50;92395.22;;;5.20;100.00
10988;BME280;5547;42.672;23.230;2023-04-01T20:21:56;92388.47;;;5.16;100.00
10988;BME280;5547;42.672;23.230;2023-04-01T20:25:05;92406.22;;;5.12;100.00
10988;BME280;5547;42.672;23.230;2023-04-01T20:31:31;92413.44;;;5.04;100.00
10988;BME280;5547;42.672;23.230;2023-04-01T20:35:08;92408.75;;;4.81;100.00
10988;BME280;5547;42.672;23.230;2023-04-01T20:38:58;92403.38;;;4.92;100.00
10988;BME280;5547;42.672;23.230;2023-04-01T20:45:17;92418.78;;;4.93;100.00
10988;BME280;5547;42.672;23.230;2023-04-01T20:51:39;92379.63;;;4.50;100.00
10988;BME280;5547;42.672;23.230;2023-04-01T20:58:57;92396.13;;;4.58;100.00
10988;BME280;5547;42.672;23.230;2023-04-01T21:01:34;92408.03;;;4.73;100.00
10988;BME280;5547;42.672;23.230;2023-04-01T21:07:48;92413.75;;;5.10;100.00
10988;BME280;5547;42.672;23.230;2023-04-01T21:45:56;92426.28;;;4.98;100.00
10988;BME280;5547;42.672;23.230;2023-04-01T21:49:05;92427.41;;;4.97;100.00
10988;BME280;5547;42.672;23.230;2023-04-01T21:52:33;92426.69;;;4.93;100.00
10988;BME280;5547;42.672;23.230;2023-04-01T22:09:33;92401.41;;;4.54;100.00
10988;BME280;5547;42.672;23.230;2023-04-01T22:19:33;92409.78;;;4.42;100.00
10988;BME280;5547;42.672;23.230;2023-04-01T22:23:17;92421.34;;;4.55;100.00
10988;BME280;5547;42.672;23.230;2023-04-01T22:36:44;92338.59;;;4.00;100.00
10988;BME280;5547;42.672;23.230;2023-04-01T22:42:59;92389.09;;;4.40;100.00
10988;BME280;5547;42.672;23.230;2023-04-01T22:49:47;92380.81;;;4.38;100.00
10988;BME280;5547;42.672;23.230;2023-04-01T22:53:01;92438.53;;;4.71;100.00
10988;BME280;5547;42.672;23.230;2023-04-01T22:56:11;92442.59;;;4.82;100.00
10988;BME280;5547;42.672;23.230;2023-04-01T23:02:47;92416.44;;;4.57;100.00
10988;BME280;5547;42.672;23.230;2023-04-01T23:05:51;92437.25;;;4.93;100.00
10988;BME280;5547;42.672;23.230;2023-04-01T23:09:21;92444.47;;;4.86;100.00
10988;BME280;5547;42.672;23.230;2023-04-01T23:12:25;92432.47;;;4.77;100.00
10988;BME280;5547;42.672;23.230;2023-04-01T23:15:27;92444.97;;;4.66;100.00
10988;BME280;5547;42.672;23.230;2023-04-01T23:24:42;92455.28;;;4.46;100.00
10988;BME280;5547;42.672;23.230;2023-04-01T23:31:35;92443.50;;;4.61;100.00
10988;BME280;5547;42.672;23.230;2023-04-01T23:34:36;92456.97;;;4.74;100.00
10988;BME280;5547;42.672;23.230;2023-04-01T23:37:37;92456.97;;;4.71;100.00
10988;BME280;5547;42.672;23.230;2023-04-01T23:40:37;92448.38;;;4.63;100.00
10988;BME280;5547;42.672;23.230;2023-04-01T23:43:39;92454.63;;;4.83;100.00
10988;BME280;5547;42.672;23.230;2023-04-01T23:46:42;92455.47;;;4.70;100.00
10988;BME280;5547;42.672;23.230;2023-04-01T23:49:47;92419.09;;;4.50;100.00
10988;BME280;5547;42.672;23.230;2023-04-01T23:52:57;92450.59;;;4.68;100.00
10988;BME280;5547;42.672;23.230;2023-04-01T23:56:01;92424.06;;;4.41;100.00
10988;BME280;5547;42.672;23.230;2023-04-01T23:59:02;92455.19;;;4.60;100.00
